sensor_id;sensor_type;location;lat;lon;timestamp;P1;durP1;ratioP1;P2;durP2;ratioP2
28623;SDS011;15813;46.932;19.658;2023-08-01T00:00:43;762.85;;;568.38;;
28623;SDS011;15813;46.932;19.658;2023-08-01T00:03:08;732.33;;;533.00;;
28623;SDS011;15813;46.932;19.658;2023-08-01T00:05:33;711.17;;;547.60;;
28623;SDS011;15813;46.932;19.658;2023-08-01T00:07:58;731.67;;;538.42;;
28623;SDS011;15813;46.932;19.658;2023-08-01T00:10:24;751.03;;;537.28;;
28623;SDS011;15813;46.932;19.658;2023-08-01T00:12:49;749.05;;;514.20;;
28623;SDS011;15813;46.932;19.658;2023-08-01T00:15:14;765.13;;;596.72;;
28623;SDS011;15813;46.932;19.658;2023-08-01T00:17:40;764.13;;;588.15;;
28623;SDS011;15813;46.932;19.658;2023-08-01T00:20:06;762.55;;;600.47;;
28623;SDS011;15813;46.932;19.658;2023-08-01T00:22:31;761.53;;;572.40;;
28623;SDS011;15813;46.932;19.658;2023-08-01T00:24:57;795.72;;;623.70;;
28623;SDS011;15813;46.932;19.658;2023-08-01T00:27:23;800.15;;;563.35;;
28623;SDS011;15813;46.932;19.658;2023-08-01T00:29:49;803.38;;;594.55;;
28623;SDS011;15813;46.932;19.658;2023-08-01T00:32:14;785.63;;;578.50;;
28623;SDS011;15813;46.932;19.658;2023-08-01T00:34:40;781.20;;;594.63;;
28623;SDS011;15813;46.932;19.658;2023-08-01T00:37:05;771.78;;;577.05;;
28623;SDS011;15813;46.932;19.658;2023-08-01T00:39:30;726.28;;;583.50;;
28623;SDS011;15813;46.932;19.658;2023-08-01T00:41:56;745.45;;;581.83;;
28623;SDS011;15813;46.932;19.658;2023-08-01T00:44:21;757.42;;;583.83;;
28623;SDS011;15813;46.932;19.658;2023-08-01T00:46:47;778.33;;;579.90;;
28623;SDS011;15813;46.932;19.658;2023-08-01T00:49:13;762.10;;;595.10;;
28623;SDS011;15813;46.932;19.658;2023-08-01T00:51:39;764.10;;;550.72;;
28623;SDS011;15813;46.932;19.658;2023-08-01T00:54:04;737.42;;;565.13;;
28623;SDS011;15813;46.932;19.658;2023-08-01T00:56:30;715.53;;;555.85;;
28623;SDS011;15813;46.932;19.658;2023-08-01T00:58:56;718.40;;;573.30;;
28623;SDS011;15813;46.932;19.658;2023-08-01T01:01:22;717.63;;;574.47;;
28623;SDS011;15813;46.932;19.658;2023-08-01T01:03:48;726.22;;;571.55;;
28623;SDS011;15813;46.932;19.658;2023-08-01T01:06:20;736.60;;;564.10;;
28623;SDS011;15813;46.932;19.658;2023-08-01T01:08:47;738.70;;;565.67;;
28623;SDS011;15813;46.932;19.658;2023-08-01T01:11:13;733.85;;;507.00;;
28623;SDS011;15813;46.932;19.658;2023-08-01T01:13:38;727.22;;;552.22;;
28623;SDS011;15813;46.932;19.658;2023-08-01T01:16:04;753.80;;;572.17;;
28623;SDS011;15813;46.932;19.658;2023-08-01T01:18:29;759.58;;;577.60;;
28623;SDS011;15813;46.932;19.658;2023-08-01T01:20:55;739.42;;;569.60;;
28623;SDS011;15813;46.932;19.658;2023-08-01T01:23:20;746.13;;;572.60;;
28623;SDS011;15813;46.932;19.658;2023-08-01T01:25:46;746.20;;;541.70;;
28623;SDS011;15813;46.932;19.658;2023-08-01T01:28:13;747.25;;;559.50;;
28623;SDS011;15813;46.932;19.658;2023-08-01T01:30:39;739.67;;;552.83;;
28623;SDS011;15813;46.932;19.658;2023-08-01T01:33:04;749.20;;;534.63;;
28623;SDS011;15813;46.932;19.658;2023-08-01T01:35:30;773.28;;;533.72;;
28623;SDS011;15813;46.932;19.658;2023-08-01T01:37:55;737.08;;;569.67;;
28623;SDS011;15813;46.932;19.658;2023-08-01T01:40:20;729.83;;;573.70;;
28623;SDS011;15813;46.932;19.658;2023-08-01T01:42:46;753.47;;;548.63;;
28623;SDS011;15813;46.932;19.658;2023-08-01T01:45:11;732.55;;;555.65;;
28623;SDS011;15813;46.932;19.658;2023-08-01T01:47:36;731.75;;;586.67;;
28623;SDS011;15813;46.932;19.658;2023-08-01T01:50:01;753.65;;;589.15;;
28623;SDS011;15813;46.932;19.658;2023-08-01T01:52:28;717.70;;;560.00;;
28623;SDS011;15813;46.932;19.658;2023-08-01T01:54:53;792.53;;;580.00;;
28623;SDS011;15813;46.932;19.658;2023-08-01T01:57:18;822.92;;;586.88;;
28623;SDS011;15813;46.932;19.658;2023-08-01T01:59:43;854.05;;;550.92;;
28623;SDS011;15813;46.932;19.658;2023-08-01T02:02:09;827.15;;;537.72;;
28623;SDS011;15813;46.932;19.658;2023-08-01T02:04:34;807.15;;;563.13;;
28623;SDS011;15813;46.932;19.658;2023-08-01T02:06:59;834.90;;;559.75;;
28623;SDS011;15813;46.932;19.658;2023-08-01T02:09:25;811.47;;;543.97;;
28623;SDS011;15813;46.932;19.658;2023-08-01T02:11:50;818.90;;;517.15;;
28623;SDS011;15813;46.932;19.658;2023-08-01T02:14:15;783.35;;;539.70;;
28623;SDS011;15813;46.932;19.658;2023-08-01T02:16:41;774.38;;;523.30;;
28623;SDS011;15813;46.932;19.658;2023-08-01T02:19:06;794.35;;;500.42;;
28623;SDS011;15813;46.932;19.658;2023-08-01T02:21:31;825.47;;;512.20;;
28623;SDS011;15813;46.932;19.658;2023-08-01T02:23:56;775.25;;;491.77;;
28623;SDS011;15813;46.932;19.658;2023-08-01T02:26:22;799.22;;;519.65;;
28623;SDS011;15813;46.932;19.658;2023-08-01T02:28:49;827.03;;;510.58;;
28623;SDS011;15813;46.932;19.658;2023-08-01T02:31:15;817.78;;;485.33;;
28623;SDS011;15813;46.932;19.658;2023-08-01T02:33:40;823.35;;;431.35;;
28623;SDS011;15813;46.932;19.658;2023-08-01T02:36:05;838.90;;;573.45;;
28623;SDS011;15813;46.932;19.658;2023-08-01T02:38:30;744.63;;;515.28;;
28623;SDS011;15813;46.932;19.658;2023-08-01T02:40:56;764.83;;;537.40;;
28623;SDS011;15813;46.932;19.658;2023-08-01T02:43:21;773.63;;;519.40;;
28623;SDS011;15813;46.932;19.658;2023-08-01T02:45:46;804.25;;;503.98;;
28623;SDS011;15813;46.932;19.658;2023-08-01T02:48:11;775.75;;;492.42;;
28623;SDS011;15813;46.932;19.658;2023-08-01T02:50:37;783.50;;;487.20;;
28623;SDS011;15813;46.932;19.658;2023-08-01T02:53:02;810.10;;;501.48;;
28623;SDS011;15813;46.932;19.658;2023-08-01T02:55:27;821.65;;;496.10;;
28623;SDS011;15813;46.932;19.658;2023-08-01T02:57:52;847.50;;;485.08;;
28623;SDS011;15813;46.932;19.658;2023-08-01T03:00:18;771.78;;;516.13;;
28623;SDS011;15813;46.932;19.658;2023-08-01T03:02:43;792.97;;;498.65;;
28623;SDS011;15813;46.932;19.658;2023-08-01T03:05:08;823.38;;;509.45;;
28623;SDS011;15813;46.932;19.658;2023-08-01T03:07:34;736.28;;;526.42;;
28623;SDS011;15813;46.932;19.658;2023-08-01T03:09:59;838.83;;;518.92;;
28623;SDS011;15813;46.932;19.658;2023-08-01T03:12:25;817.50;;;527.25;;
28623;SDS011;15813;46.932;19.658;2023-08-01T03:14:50;846.22;;;489.08;;
28623;SDS011;15813;46.932;19.658;2023-08-01T03:17:15;862.47;;;536.28;;
28623;SDS011;15813;46.932;19.658;2023-08-01T03:19:41;856.17;;;498.50;;
28623;SDS011;15813;46.932;19.658;2023-08-01T03:22:07;818.45;;;470.10;;
28623;SDS011;15813;46.932;19.658;2023-08-01T03:24:32;771.42;;;496.67;;
28623;SDS011;15813;46.932;19.658;2023-08-01T03:26:58;852.08;;;516.80;;
28623;SDS011;15813;46.932;19.658;2023-08-01T03:29:23;870.38;;;550.05;;
28623;SDS011;15813;46.932;19.658;2023-08-01T03:31:48;873.28;;;585.65;;
28623;SDS011;15813;46.932;19.658;2023-08-01T03:34:13;835.95;;;555.00;;
28623;SDS011;15813;46.932;19.658;2023-08-01T03:36:39;839.65;;;463.08;;
28623;SDS011;15813;46.932;19.658;2023-08-01T03:39:04;815.60;;;422.52;;
28623;SDS011;15813;46.932;19.658;2023-08-01T03:41:29;802.85;;;437.40;;
28623;SDS011;15813;46.932;19.658;2023-08-01T03:43:54;831.67;;;415.50;;
28623;SDS011;15813;46.932;19.658;2023-08-01T03:46:20;846.03;;;467.02;;
28623;SDS011;15813;46.932;19.658;2023-08-01T03:48:45;850.75;;;488.20;;
28623;SDS011;15813;46.932;19.658;2023-08-01T03:51:10;839.40;;;482.50;;
28623;SDS011;15813;46.932;19.658;2023-08-01T03:53:36;826.88;;;449.38;;
28623;SDS011;15813;46.932;19.658;2023-08-01T03:56:01;859.15;;;473.75;;
28623;SDS011;15813;46.932;19.658;2023-08-01T03:58:27;730.60;;;471.08;;
28623;SDS011;15813;46.932;19.658;2023-08-01T04:00:52;750.97;;;473.75;;
28623;SDS011;15813;46.932;19.658;2023-08-01T04:03:18;728.80;;;470.75;;
28623;SDS011;15813;46.932;19.658;2023-08-01T04:05:43;762.13;;;488.05;;
28623;SDS011;15813;46.932;19.658;2023-08-01T04:08:09;741.35;;;526.85;;
28623;SDS011;15813;46.932;19.658;2023-08-01T04:10:34;738.50;;;528.63;;
28623;SDS011;15813;46.932;19.658;2023-08-01T04:12:59;756.80;;;539.70;;
28623;SDS011;15813;46.932;19.658;2023-08-01T04:15:24;771.42;;;517.42;;
28623;SDS011;15813;46.932;19.658;2023-08-01T04:17:50;784.83;;;482.90;;
28623;SDS011;15813;46.932;19.658;2023-08-01T04:20:15;717.45;;;523.35;;
28623;SDS011;15813;46.932;19.658;2023-08-01T04:22:40;762.42;;;551.72;;
28623;SDS011;15813;46.932;19.658;2023-08-01T04:25:06;770.10;;;547.97;;
28623;SDS011;15813;46.932;19.658;2023-08-01T04:27:31;719.30;;;589.25;;
28623;SDS011;15813;46.932;19.658;2023-08-01T04:29:56;779.35;;;585.50;;
28623;SDS011;15813;46.932;19.658;2023-08-01T04:32:21;769.20;;;603.53;;
28623;SDS011;15813;46.932;19.658;2023-08-01T04:34:47;722.13;;;603.28;;
28623;SDS011;15813;46.932;19.658;2023-08-01T04:37:12;798.92;;;629.63;;
28623;SDS011;15813;46.932;19.658;2023-08-01T04:39:38;892.85;;;633.30;;
28623;SDS011;15813;46.932;19.658;2023-08-01T04:42:03;908.53;;;635.13;;
28623;SDS011;15813;46.932;19.658;2023-08-01T04:44:29;900.17;;;646.25;;
28623;SDS011;15813;46.932;19.658;2023-08-01T04:46:55;910.80;;;676.88;;
28623;SDS011;15813;46.932;19.658;2023-08-01T04:49:20;920.90;;;682.75;;
28623;SDS011;15813;46.932;19.658;2023-08-01T04:51:47;916.58;;;691.55;;
28623;SDS011;15813;46.932;19.658;2023-08-01T04:54:12;881.67;;;685.28;;
28623;SDS011;15813;46.932;19.658;2023-08-01T04:56:38;906.55;;;698.30;;
28623;SDS011;15813;46.932;19.658;2023-08-01T04:59:03;910.20;;;717.83;;
28623;SDS011;15813;46.932;19.658;2023-08-01T05:01:28;876.22;;;724.97;;
28623;SDS011;15813;46.932;19.658;2023-08-01T05:03:53;910.13;;;711.47;;
28623;SDS011;15813;46.932;19.658;2023-08-01T05:06:19;835.38;;;743.20;;
28623;SDS011;15813;46.932;19.658;2023-08-01T05:08:44;892.87;;;743.60;;
28623;SDS011;15813;46.932;19.658;2023-08-01T05:11:09;891.90;;;742.15;;
28623;SDS011;15813;46.932;19.658;2023-08-01T05:13:35;893.15;;;754.67;;
28623;SDS011;15813;46.932;19.658;2023-08-01T05:16:00;865.47;;;771.03;;
28623;SDS011;15813;46.932;19.658;2023-08-01T05:18:26;900.50;;;765.28;;
28623;SDS011;15813;46.932;19.658;2023-08-01T05:20:51;882.83;;;785.08;;
28623;SDS011;15813;46.932;19.658;2023-08-01T05:23:16;917.35;;;787.40;;
28623;SDS011;15813;46.932;19.658;2023-08-01T05:25:42;925.75;;;789.35;;
28623;SDS011;15813;46.932;19.658;2023-08-01T05:28:07;901.97;;;790.07;;
28623;SDS011;15813;46.932;19.658;2023-08-01T05:30:32;907.00;;;794.13;;
28623;SDS011;15813;46.932;19.658;2023-08-01T05:32:58;928.00;;;811.33;;
28623;SDS011;15813;46.932;19.658;2023-08-01T05:35:23;902.58;;;805.97;;
28623;SDS011;15813;46.932;19.658;2023-08-01T05:37:48;920.20;;;826.15;;
28623;SDS011;15813;46.932;19.658;2023-08-01T05:40:14;868.53;;;790.23;;
28623;SDS011;15813;46.932;19.658;2023-08-01T05:42:39;97.50;;;90.87;;
28623;SDS011;15813;46.932;19.658;2023-08-01T05:45:04;53.60;;;49.83;;
28623;SDS011;15813;46.932;19.658;2023-08-01T05:47:30;10.65;;;3.15;;
28623;SDS011;15813;46.932;19.658;2023-08-01T05:49:55;15.30;;;5.40;;
28623;SDS011;15813;46.932;19.658;2023-08-01T05:52:21;177.52;;;161.85;;
28623;SDS011;15813;46.932;19.658;2023-08-01T05:54:46;303.45;;;280.58;;
28623;SDS011;15813;46.932;19.658;2023-08-01T05:57:12;146.65;;;134.52;;
28623;SDS011;15813;46.932;19.658;2023-08-01T05:59:37;77.93;;;71.77;;
28623;SDS011;15813;46.932;19.658;2023-08-01T06:02:02;103.82;;;97.13;;
28623;SDS011;15813;46.932;19.658;2023-08-01T06:04:28;246.30;;;229.63;;
28623;SDS011;15813;46.932;19.658;2023-08-01T06:06:53;76.00;;;66.82;;
28623;SDS011;15813;46.932;19.658;2023-08-01T06:09:18;143.88;;;133.93;;
28623;SDS011;15813;46.932;19.658;2023-08-01T06:11:44;25.37;;;23.33;;
28623;SDS011;15813;46.932;19.658;2023-08-01T06:14:09;190.27;;;111.07;;
28623;SDS011;15813;46.932;19.658;2023-08-01T06:16:34;6.45;;;2.60;;
28623;SDS011;15813;46.932;19.658;2023-08-01T06:19:00;12.47;;;11.50;;
28623;SDS011;15813;46.932;19.658;2023-08-01T06:21:25;188.63;;;175.00;;
28623;SDS011;15813;46.932;19.658;2023-08-01T06:23:51;73.82;;;66.80;;
28623;SDS011;15813;46.932;19.658;2023-08-01T06:26:16;613.63;;;550.83;;
28623;SDS011;15813;46.932;19.658;2023-08-01T06:28:41;5.70;;;1.93;;
28623;SDS011;15813;46.932;19.658;2023-08-01T06:31:07;9.45;;;2.17;;
28623;SDS011;15813;46.932;19.658;2023-08-01T06:33:32;6.18;;;2.50;;
28623;SDS011;15813;46.932;19.658;2023-08-01T06:35:57;7.15;;;2.50;;
28623;SDS011;15813;46.932;19.658;2023-08-01T06:38:23;12.23;;;2.10;;
28623;SDS011;15813;46.932;19.658;2023-08-01T06:40:48;467.13;;;430.50;;
28623;SDS011;15813;46.932;19.658;2023-08-01T06:43:13;399.53;;;369.43;;
28623;SDS011;15813;46.932;19.658;2023-08-01T06:45:38;565.10;;;518.70;;
28623;SDS011;15813;46.932;19.658;2023-08-01T06:48:04;546.90;;;503.70;;
28623;SDS011;15813;46.932;19.658;2023-08-01T06:50:29;645.72;;;590.15;;
28623;SDS011;15813;46.932;19.658;2023-08-01T06:52:54;603.37;;;542.97;;
28623;SDS011;15813;46.932;19.658;2023-08-01T06:55:20;7.77;;;2.30;;
28623;SDS011;15813;46.932;19.658;2023-08-01T06:57:45;2.73;;;1.80;;
28623;SDS011;15813;46.932;19.658;2023-08-01T07:00:10;5.30;;;2.00;;
28623;SDS011;15813;46.932;19.658;2023-08-01T07:02:36;6.82;;;2.22;;
28623;SDS011;15813;46.932;19.658;2023-08-01T07:05:01;3.50;;;1.77;;
28623;SDS011;15813;46.932;19.658;2023-08-01T07:07:26;6.33;;;2.20;;
28623;SDS011;15813;46.932;19.658;2023-08-01T07:09:52;4.60;;;1.87;;
28623;SDS011;15813;46.932;19.658;2023-08-01T07:12:17;3.33;;;1.92;;
28623;SDS011;15813;46.932;19.658;2023-08-01T07:14:42;4.43;;;1.60;;
28623;SDS011;15813;46.932;19.658;2023-08-01T07:17:08;6.13;;;1.85;;
28623;SDS011;15813;46.932;19.658;2023-08-01T07:19:33;3.47;;;2.00;;
28623;SDS011;15813;46.932;19.658;2023-08-01T07:21:58;6.07;;;2.10;;
28623;SDS011;15813;46.932;19.658;2023-08-01T07:24:23;5.43;;;2.30;;
28623;SDS011;15813;46.932;19.658;2023-08-01T07:26:49;4.53;;;1.80;;
28623;SDS011;15813;46.932;19.658;2023-08-01T07:29:14;5.70;;;2.10;;
28623;SDS011;15813;46.932;19.658;2023-08-01T07:31:41;3.65;;;1.60;;
28623;SDS011;15813;46.932;19.658;2023-08-01T07:34:06;3.05;;;1.90;;
28623;SDS011;15813;46.932;19.658;2023-08-01T07:36:31;3.57;;;1.93;;
28623;SDS011;15813;46.932;19.658;2023-08-01T07:38:57;3.53;;;1.93;;
28623;SDS011;15813;46.932;19.658;2023-08-01T07:41:22;7.13;;;2.20;;
28623;SDS011;15813;46.932;19.658;2023-08-01T07:43:47;3.60;;;1.80;;
28623;SDS011;15813;46.932;19.658;2023-08-01T07:46:13;2.97;;;1.65;;
28623;SDS011;15813;46.932;19.658;2023-08-01T07:48:39;7.83;;;2.07;;
28623;SDS011;15813;46.932;19.658;2023-08-01T07:51:04;4.65;;;2.10;;
28623;SDS011;15813;46.932;19.658;2023-08-01T07:53:30;12.90;;;2.60;;
28623;SDS011;15813;46.932;19.658;2023-08-01T07:55:56;4.05;;;1.65;;
28623;SDS011;15813;46.932;19.658;2023-08-01T07:58:21;5.03;;;2.10;;
28623;SDS011;15813;46.932;19.658;2023-08-01T08:00:46;4.55;;;1.77;;
28623;SDS011;15813;46.932;19.658;2023-08-01T08:03:12;2.92;;;1.58;;
28623;SDS011;15813;46.932;19.658;2023-08-01T08:05:37;8.80;;;1.90;;
28623;SDS011;15813;46.932;19.658;2023-08-01T08:08:03;12.82;;;2.60;;
28623;SDS011;15813;46.932;19.658;2023-08-01T08:10:29;4.80;;;1.73;;
28623;SDS011;15813;46.932;19.658;2023-08-01T08:12:54;3.33;;;1.73;;
28623;SDS011;15813;46.932;19.658;2023-08-01T08:15:19;10.03;;;2.27;;
28623;SDS011;15813;46.932;19.658;2023-08-01T08:17:45;11.65;;;2.20;;
28623;SDS011;15813;46.932;19.658;2023-08-01T08:20:10;4.27;;;1.80;;
28623;SDS011;15813;46.932;19.658;2023-08-01T08:22:35;6.07;;;2.00;;
28623;SDS011;15813;46.932;19.658;2023-08-01T08:25:00;5.80;;;2.03;;
28623;SDS011;15813;46.932;19.658;2023-08-01T08:27:26;6.20;;;1.63;;
28623;SDS011;15813;46.932;19.658;2023-08-01T08:29:51;7.15;;;2.30;;
28623;SDS011;15813;46.932;19.658;2023-08-01T08:32:17;3.90;;;1.70;;
28623;SDS011;15813;46.932;19.658;2023-08-01T08:34:42;4.20;;;1.73;;
28623;SDS011;15813;46.932;19.658;2023-08-01T08:37:07;6.70;;;2.40;;
28623;SDS011;15813;46.932;19.658;2023-08-01T08:39:32;4.70;;;1.97;;
28623;SDS011;15813;46.932;19.658;2023-08-01T08:41:58;6.07;;;2.00;;
28623;SDS011;15813;46.932;19.658;2023-08-01T08:44:24;4.95;;;1.95;;
28623;SDS011;15813;46.932;19.658;2023-08-01T08:46:50;4.43;;;2.13;;
28623;SDS011;15813;46.932;19.658;2023-08-01T08:49:17;4.97;;;2.05;;
28623;SDS011;15813;46.932;19.658;2023-08-01T08:51:44;4.18;;;1.40;;
28623;SDS011;15813;46.932;19.658;2023-08-01T08:54:10;6.20;;;1.92;;
28623;SDS011;15813;46.932;19.658;2023-08-01T08:56:36;6.00;;;2.00;;
28623;SDS011;15813;46.932;19.658;2023-08-01T08:59:03;13.35;;;2.33;;
28623;SDS011;15813;46.932;19.658;2023-08-01T09:01:29;3.65;;;1.88;;
28623;SDS011;15813;46.932;19.658;2023-08-01T09:03:56;3.40;;;1.73;;
28623;SDS011;15813;46.932;19.658;2023-08-01T09:06:28;8.23;;;2.22;;
28623;SDS011;15813;46.932;19.658;2023-08-01T09:11:26;12.15;;;2.33;;
28623;SDS011;15813;46.932;19.658;2023-08-01T09:13:51;5.85;;;1.80;;
28623;SDS011;15813;46.932;19.658;2023-08-01T09:16:16;8.93;;;1.90;;
28623;SDS011;15813;46.932;19.658;2023-08-01T09:18:51;6.30;;;1.73;;
28623;SDS011;15813;46.932;19.658;2023-08-01T09:21:20;4.03;;;1.83;;
28623;SDS011;15813;46.932;19.658;2023-08-01T09:23:45;9.07;;;1.77;;
28623;SDS011;15813;46.932;19.658;2023-08-01T09:26:17;6.55;;;1.67;;
28623;SDS011;15813;46.932;19.658;2023-08-01T09:28:43;4.00;;;1.60;;
28623;SDS011;15813;46.932;19.658;2023-08-01T09:31:09;4.72;;;1.50;;
28623;SDS011;15813;46.932;19.658;2023-08-01T09:33:38;6.80;;;2.40;;
28623;SDS011;15813;46.932;19.658;2023-08-01T09:36:05;4.70;;;1.80;;
28623;SDS011;15813;46.932;19.658;2023-08-01T09:38:33;4.32;;;2.30;;
28623;SDS011;15813;46.932;19.658;2023-08-01T09:40:58;5.93;;;1.60;;
28623;SDS011;15813;46.932;19.658;2023-08-01T09:43:24;3.17;;;1.95;;
28623;SDS011;15813;46.932;19.658;2023-08-01T09:45:52;4.53;;;1.90;;
28623;SDS011;15813;46.932;19.658;2023-08-01T09:48:36;2.90;;;1.60;;
28623;SDS011;15813;46.932;19.658;2023-08-01T09:51:05;7.97;;;1.98;;
28623;SDS011;15813;46.932;19.658;2023-08-01T09:53:31;4.05;;;1.70;;
28623;SDS011;15813;46.932;19.658;2023-08-01T09:55:56;3.42;;;1.40;;
28623;SDS011;15813;46.932;19.658;2023-08-01T09:58:24;2.60;;;1.67;;
28623;SDS011;15813;46.932;19.658;2023-08-01T10:00:49;3.03;;;1.58;;
28623;SDS011;15813;46.932;19.658;2023-08-01T10:03:16;2.97;;;1.80;;
28623;SDS011;15813;46.932;19.658;2023-08-01T10:05:41;9.70;;;2.10;;
28623;SDS011;15813;46.932;19.658;2023-08-01T10:08:07;4.97;;;1.77;;
28623;SDS011;15813;46.932;19.658;2023-08-01T10:10:32;5.00;;;2.10;;
28623;SDS011;15813;46.932;19.658;2023-08-01T10:12:58;3.70;;;1.65;;
28623;SDS011;15813;46.932;19.658;2023-08-01T10:15:25;3.17;;;1.50;;
28623;SDS011;15813;46.932;19.658;2023-08-01T10:17:51;4.47;;;1.60;;
28623;SDS011;15813;46.932;19.658;2023-08-01T10:20:17;4.72;;;2.30;;
28623;SDS011;15813;46.932;19.658;2023-08-01T10:22:43;2.72;;;1.73;;
28623;SDS011;15813;46.932;19.658;2023-08-01T10:25:09;6.45;;;2.00;;
28623;SDS011;15813;46.932;19.658;2023-08-01T10:27:35;6.68;;;2.10;;
28623;SDS011;15813;46.932;19.658;2023-08-01T10:30:02;3.60;;;1.85;;
28623;SDS011;15813;46.932;19.658;2023-08-01T10:32:37;6.53;;;2.10;;
28623;SDS011;15813;46.932;19.658;2023-08-01T10:35:03;5.45;;;2.25;;
28623;SDS011;15813;46.932;19.658;2023-08-01T10:37:44;4.53;;;2.33;;
28623;SDS011;15813;46.932;19.658;2023-08-01T10:40:12;2.35;;;1.58;;
28623;SDS011;15813;46.932;19.658;2023-08-01T10:42:38;3.42;;;1.67;;
28623;SDS011;15813;46.932;19.658;2023-08-01T10:45:03;2.47;;;1.40;;
28623;SDS011;15813;46.932;19.658;2023-08-01T10:47:29;2.72;;;1.60;;
28623;SDS011;15813;46.932;19.658;2023-08-01T10:49:55;4.53;;;2.30;;
28623;SDS011;15813;46.932;19.658;2023-08-01T10:52:22;2.73;;;1.57;;
28623;SDS011;15813;46.932;19.658;2023-08-01T10:57:23;2.28;;;1.50;;
28623;SDS011;15813;46.932;19.658;2023-08-01T10:59:49;2.70;;;1.88;;
28623;SDS011;15813;46.932;19.658;2023-08-01T11:02:19;3.00;;;1.73;;
28623;SDS011;15813;46.932;19.658;2023-08-01T11:04:44;3.65;;;1.95;;
28623;SDS011;15813;46.932;19.658;2023-08-01T11:07:19;2.85;;;1.60;;
28623;SDS011;15813;46.932;19.658;2023-08-01T11:09:44;3.87;;;1.60;;
28623;SDS011;15813;46.932;19.658;2023-08-01T11:12:09;2.53;;;1.50;;
28623;SDS011;15813;46.932;19.658;2023-08-01T11:14:35;6.20;;;2.28;;
28623;SDS011;15813;46.932;19.658;2023-08-01T11:17:00;3.65;;;1.58;;
28623;SDS011;15813;46.932;19.658;2023-08-01T11:19:26;3.05;;;1.60;;
28623;SDS011;15813;46.932;19.658;2023-08-01T11:21:52;3.80;;;1.50;;
28623;SDS011;15813;46.932;19.658;2023-08-01T11:24:18;10.40;;;1.77;;
28623;SDS011;15813;46.932;19.658;2023-08-01T11:26:44;4.63;;;1.60;;
28623;SDS011;15813;46.932;19.658;2023-08-01T11:29:10;3.72;;;1.67;;
28623;SDS011;15813;46.932;19.658;2023-08-01T11:31:36;7.35;;;1.95;;
28623;SDS011;15813;46.932;19.658;2023-08-01T11:34:01;3.67;;;1.57;;
28623;SDS011;15813;46.932;19.658;2023-08-01T11:36:27;3.95;;;1.50;;
28623;SDS011;15813;46.932;19.658;2023-08-01T11:38:52;1.98;;;1.50;;
28623;SDS011;15813;46.932;19.658;2023-08-01T11:41:18;2.15;;;1.63;;
28623;SDS011;15813;46.932;19.658;2023-08-01T11:43:43;5.63;;;1.35;;
28623;SDS011;15813;46.932;19.658;2023-08-01T11:46:09;3.63;;;1.90;;
28623;SDS011;15813;46.932;19.658;2023-08-01T11:48:35;3.53;;;1.55;;
28623;SDS011;15813;46.932;19.658;2023-08-01T11:51:00;5.93;;;1.65;;
28623;SDS011;15813;46.932;19.658;2023-08-01T11:53:26;148.77;;;9.50;;
28623;SDS011;15813;46.932;19.658;2023-08-01T11:55:51;3.20;;;1.52;;
28623;SDS011;15813;46.932;19.658;2023-08-01T11:58:27;5.78;;;1.75;;
28623;SDS011;15813;46.932;19.658;2023-08-01T12:01:01;6.25;;;1.77;;
28623;SDS011;15813;46.932;19.658;2023-08-01T12:03:26;2.50;;;1.50;;
28623;SDS011;15813;46.932;19.658;2023-08-01T12:05:51;5.30;;;1.70;;
28623;SDS011;15813;46.932;19.658;2023-08-01T12:08:17;2.07;;;1.50;;
28623;SDS011;15813;46.932;19.658;2023-08-01T12:10:43;5.20;;;1.60;;
28623;SDS011;15813;46.932;19.658;2023-08-01T12:15:47;2.00;;;1.30;;
28623;SDS011;15813;46.932;19.658;2023-08-01T12:18:19;11.65;;;1.90;;
28623;SDS011;15813;46.932;19.658;2023-08-01T12:20:44;4.28;;;1.60;;
28623;SDS011;15813;46.932;19.658;2023-08-01T12:23:09;3.13;;;1.50;;
28623;SDS011;15813;46.932;19.658;2023-08-01T12:25:35;5.40;;;1.40;;
28623;SDS011;15813;46.932;19.658;2023-08-01T12:28:00;4.03;;;1.38;;
28623;SDS011;15813;46.932;19.658;2023-08-01T12:30:25;3.23;;;1.60;;
28623;SDS011;15813;46.932;19.658;2023-08-01T12:32:50;3.73;;;1.70;;
28623;SDS011;15813;46.932;19.658;2023-08-01T12:35:16;2.20;;;1.57;;
28623;SDS011;15813;46.932;19.658;2023-08-01T12:37:41;2.43;;;1.50;;
28623;SDS011;15813;46.932;19.658;2023-08-01T12:40:06;2.03;;;1.23;;
28623;SDS011;15813;46.932;19.658;2023-08-01T12:42:32;7.57;;;1.95;;
28623;SDS011;15813;46.932;19.658;2023-08-01T12:44:57;2.67;;;1.50;;
28623;SDS011;15813;46.932;19.658;2023-08-01T12:47:22;3.05;;;1.70;;
28623;SDS011;15813;46.932;19.658;2023-08-01T12:49:48;4.80;;;1.75;;
28623;SDS011;15813;46.932;19.658;2023-08-01T12:52:21;6.55;;;1.80;;
28623;SDS011;15813;46.932;19.658;2023-08-01T12:54:46;6.00;;;1.55;;
28623;SDS011;15813;46.932;19.658;2023-08-01T12:57:12;5.83;;;1.50;;
28623;SDS011;15813;46.932;19.658;2023-08-01T12:59:37;8.20;;;1.80;;
28623;SDS011;15813;46.932;19.658;2023-08-01T13:02:02;7.47;;;1.50;;
28623;SDS011;15813;46.932;19.658;2023-08-01T13:04:33;3.45;;;1.58;;
28623;SDS011;15813;46.932;19.658;2023-08-01T13:06:58;4.13;;;1.30;;
28623;SDS011;15813;46.932;19.658;2023-08-01T13:09:23;5.63;;;1.70;;
28623;SDS011;15813;46.932;19.658;2023-08-01T13:11:49;3.23;;;1.30;;
28623;SDS011;15813;46.932;19.658;2023-08-01T13:14:14;2.60;;;1.63;;
28623;SDS011;15813;46.932;19.658;2023-08-01T13:16:39;5.70;;;1.92;;
28623;SDS011;15813;46.932;19.658;2023-08-01T13:19:04;7.20;;;2.10;;
28623;SDS011;15813;46.932;19.658;2023-08-01T13:21:31;7.93;;;1.92;;
28623;SDS011;15813;46.932;19.658;2023-08-01T13:23:56;11.65;;;2.22;;
28623;SDS011;15813;46.932;19.658;2023-08-01T13:26:21;5.93;;;1.17;;
28623;SDS011;15813;46.932;19.658;2023-08-01T13:28:47;5.23;;;1.70;;
28623;SDS011;15813;46.932;19.658;2023-08-01T13:31:12;5.40;;;2.00;;
28623;SDS011;15813;46.932;19.658;2023-08-01T13:33:37;4.72;;;1.88;;
28623;SDS011;15813;46.932;19.658;2023-08-01T13:36:03;3.27;;;1.30;;
28623;SDS011;15813;46.932;19.658;2023-08-01T13:38:29;6.77;;;1.33;;
28623;SDS011;15813;46.932;19.658;2023-08-01T13:40:54;6.93;;;1.77;;
28623;SDS011;15813;46.932;19.658;2023-08-01T13:43:19;6.90;;;1.80;;
28623;SDS011;15813;46.932;19.658;2023-08-01T13:45:45;4.17;;;1.50;;
28623;SDS011;15813;46.932;19.658;2023-08-01T13:48:10;2.67;;;1.40;;
28623;SDS011;15813;46.932;19.658;2023-08-01T13:50:35;6.13;;;1.75;;
28623;SDS011;15813;46.932;19.658;2023-08-01T13:53:01;2.28;;;1.65;;
28623;SDS011;15813;46.932;19.658;2023-08-01T13:55:26;4.80;;;1.63;;
28623;SDS011;15813;46.932;19.658;2023-08-01T13:57:51;3.33;;;1.70;;
28623;SDS011;15813;46.932;19.658;2023-08-01T14:00:17;4.87;;;2.20;;
28623;SDS011;15813;46.932;19.658;2023-08-01T14:02:42;10.93;;;2.13;;
28623;SDS011;15813;46.932;19.658;2023-08-01T14:05:07;6.67;;;1.80;;
28623;SDS011;15813;46.932;19.658;2023-08-01T14:07:34;11.40;;;2.15;;
28623;SDS011;15813;46.932;19.658;2023-08-01T14:10:00;4.07;;;1.80;;